Rocklyn, Washington
Current Conditions -  °F | °C
As of 2:53 PM on Tuesday 27 Jan 2015 (Local Time) from KELN Reporting Station
Clear Clear  
Wind Chill: 37°   Ceiling: Unl
Heat Index: 41°   Visibility: 9mi
Dew Point: 37°   Wind: 6mph
Humidity: 86%   Direction: 140°SE
Pressure: 30"   Gusts: NA
Location:  47.2215°N, 121°W
Report Text: KELN 272253Z AUTO 14005KT 9SM CLR 05/03 A3000 RMK AO2 SLP171 T00500028
Loading
Personal Weather Stations






























Interactive Weather Map New forecast layout! Learn more

10-Day Weather Forecast

Advertisements
Track Severe Weather on mobile